sensor_id;sensor_type;location;lat;lon;timestamp;P1;durP1;ratioP1;P2;durP2;ratioP2
21848;SDS011;11089;49.852;19.700;2022-11-13T00:00:15;65.57;;;27.58;;
21848;SDS011;11089;49.852;19.700;2022-11-13T00:03:16;63.65;;;27.17;;
21848;SDS011;11089;49.852;19.700;2022-11-13T00:06:17;58.97;;;26.08;;
21848;SDS011;11089;49.852;19.700;2022-11-13T00:09:19;59.53;;;26.95;;
21848;SDS011;11089;49.852;19.700;2022-11-13T00:12:20;53.50;;;24.15;;
21848;SDS011;11089;49.852;19.700;2022-11-13T00:15:21;55.45;;;24.50;;
21848;SDS011;11089;49.852;19.700;2022-11-13T00:18:22;51.42;;;23.67;;
21848;SDS011;11089;49.852;19.700;2022-11-13T00:21:23;50.15;;;22.83;;
21848;SDS011;11089;49.852;19.700;2022-11-13T00:24:26;49.08;;;22.30;;
21848;SDS011;11089;49.852;19.700;2022-11-13T00:27:28;45.13;;;20.70;;
21848;SDS011;11089;49.852;19.700;2022-11-13T00:30:30;47.35;;;20.90;;
21848;SDS011;11089;49.852;19.700;2022-11-13T00:33:31;47.13;;;21.88;;
21848;SDS011;11089;49.852;19.700;2022-11-13T00:36:33;46.53;;;22.90;;
21848;SDS011;11089;49.852;19.700;2022-11-13T00:39:34;44.95;;;20.73;;
21848;SDS011;11089;49.852;19.700;2022-11-13T00:42:34;45.38;;;20.88;;
21848;SDS011;11089;49.852;19.700;2022-11-13T00:45:35;47.63;;;21.58;;
21848;SDS011;11089;49.852;19.700;2022-11-13T00:48:36;45.92;;;20.73;;
21848;SDS011;11089;49.852;19.700;2022-11-13T00:51:38;45.45;;;20.35;;
21848;SDS011;11089;49.852;19.700;2022-11-13T00:54:39;46.38;;;20.83;;
21848;SDS011;11089;49.852;19.700;2022-11-13T00:57:40;41.22;;;20.88;;
21848;SDS011;11089;49.852;19.700;2022-11-13T01:00:42;44.97;;;19.52;;
21848;SDS011;11089;49.852;19.700;2022-11-13T01:03:44;42.08;;;20.42;;
21848;SDS011;11089;49.852;19.700;2022-11-13T01:06:45;46.10;;;20.38;;
21848;SDS011;11089;49.852;19.700;2022-11-13T01:09:49;50.20;;;21.80;;
21848;SDS011;11089;49.852;19.700;2022-11-13T01:12:50;47.88;;;20.27;;
21848;SDS011;11089;49.852;19.700;2022-11-13T01:15:51;42.75;;;19.92;;
21848;SDS011;11089;49.852;19.700;2022-11-13T01:18:53;44.50;;;19.60;;
21848;SDS011;11089;49.852;19.700;2022-11-13T01:21:54;41.40;;;20.33;;
21848;SDS011;11089;49.852;19.700;2022-11-13T01:24:56;42.88;;;19.17;;
21848;SDS011;11089;49.852;19.700;2022-11-13T01:27:57;40.65;;;18.65;;
21848;SDS011;11089;49.852;19.700;2022-11-13T01:30:58;38.55;;;18.63;;
21848;SDS011;11089;49.852;19.700;2022-11-13T01:33:58;41.17;;;18.80;;
21848;SDS011;11089;49.852;19.700;2022-11-13T01:36:59;38.40;;;18.73;;
21848;SDS011;11089;49.852;19.700;2022-11-13T01:40:00;49.50;;;20.48;;
21848;SDS011;11089;49.852;19.700;2022-11-13T01:43:13;50.92;;;22.60;;
21848;SDS011;11089;49.852;19.700;2022-11-13T01:46:26;51.50;;;21.88;;
21848;SDS011;11089;49.852;19.700;2022-11-13T01:49:38;56.53;;;23.10;;
21848;SDS011;11089;49.852;19.700;2022-11-13T01:52:41;49.05;;;21.65;;
21848;SDS011;11089;49.852;19.700;2022-11-13T01:55:42;54.38;;;22.73;;
21848;SDS011;11089;49.852;19.700;2022-11-13T01:58:44;50.05;;;19.67;;
21848;SDS011;11089;49.852;19.700;2022-11-13T02:01:50;42.60;;;19.75;;
21848;SDS011;11089;49.852;19.700;2022-11-13T02:04:52;42.60;;;18.67;;
21848;SDS011;11089;49.852;19.700;2022-11-13T02:07:53;42.63;;;17.83;;
21848;SDS011;11089;49.852;19.700;2022-11-13T02:10:54;59.72;;;19.25;;
21848;SDS011;11089;49.852;19.700;2022-11-13T02:13:55;40.83;;;17.58;;
21848;SDS011;11089;49.852;19.700;2022-11-13T02:16:59;36.05;;;16.25;;
21848;SDS011;11089;49.852;19.700;2022-11-13T02:20:04;35.33;;;15.95;;
21848;SDS011;11089;49.852;19.700;2022-11-13T02:26:10;42.85;;;17.33;;
21848;SDS011;11089;49.852;19.700;2022-11-13T02:29:12;63.45;;;21.85;;
21848;SDS011;11089;49.852;19.700;2022-11-13T02:32:13;44.67;;;19.35;;
21848;SDS011;11089;49.852;19.700;2022-11-13T02:35:15;54.25;;;23.10;;
21848;SDS011;11089;49.852;19.700;2022-11-13T02:38:31;44.83;;;20.10;;
21848;SDS011;11089;49.852;19.700;2022-11-13T02:41:34;58.15;;;16.92;;
21848;SDS011;11089;49.852;19.700;2022-11-13T02:44:37;48.28;;;20.27;;
21848;SDS011;11089;49.852;19.700;2022-11-13T02:47:38;52.65;;;22.08;;
21848;SDS011;11089;49.852;19.700;2022-11-13T02:50:40;44.90;;;20.33;;
21848;SDS011;11089;49.852;19.700;2022-11-13T02:53:41;40.80;;;19.67;;
21848;SDS011;11089;49.852;19.700;2022-11-13T02:56:42;44.40;;;19.05;;
21848;SDS011;11089;49.852;19.700;2022-11-13T02:59:43;39.17;;;18.15;;
21848;SDS011;11089;49.852;19.700;2022-11-13T03:02:44;38.28;;;18.40;;
21848;SDS011;11089;49.852;19.700;2022-11-13T03:05:49;36.83;;;18.95;;
21848;SDS011;11089;49.852;19.700;2022-11-13T03:08:50;36.00;;;15.90;;
21848;SDS011;11089;49.852;19.700;2022-11-13T03:11:51;35.67;;;17.13;;
21848;SDS011;11089;49.852;19.700;2022-11-13T03:14:52;35.70;;;16.50;;
21848;SDS011;11089;49.852;19.700;2022-11-13T03:17:52;35.22;;;16.42;;
21848;SDS011;11089;49.852;19.700;2022-11-13T03:20:53;38.67;;;17.88;;
21848;SDS011;11089;49.852;19.700;2022-11-13T03:23:54;38.05;;;16.83;;
21848;SDS011;11089;49.852;19.700;2022-11-13T03:26:55;34.72;;;17.02;;
21848;SDS011;11089;49.852;19.700;2022-11-13T03:29:56;33.53;;;17.13;;
21848;SDS011;11089;49.852;19.700;2022-11-13T03:32:57;34.72;;;16.92;;
21848;SDS011;11089;49.852;19.700;2022-11-13T03:35:58;38.50;;;18.77;;
21848;SDS011;11089;49.852;19.700;2022-11-13T03:38:59;41.45;;;20.00;;
21848;SDS011;11089;49.852;19.700;2022-11-13T03:42:00;37.88;;;17.27;;
21848;SDS011;11089;49.852;19.700;2022-11-13T03:45:01;42.17;;;16.65;;
21848;SDS011;11089;49.852;19.700;2022-11-13T03:48:02;34.78;;;15.70;;
21848;SDS011;11089;49.852;19.700;2022-11-13T03:51:04;49.55;;;19.15;;
21848;SDS011;11089;49.852;19.700;2022-11-13T03:54:05;47.40;;;18.55;;
21848;SDS011;11089;49.852;19.700;2022-11-13T03:57:06;40.42;;;18.00;;
21848;SDS011;11089;49.852;19.700;2022-11-13T04:00:07;32.83;;;15.82;;
21848;SDS011;11089;49.852;19.700;2022-11-13T04:03:08;33.92;;;15.77;;
21848;SDS011;11089;49.852;19.700;2022-11-13T04:06:09;31.75;;;15.15;;
21848;SDS011;11089;49.852;19.700;2022-11-13T04:09:10;54.17;;;16.58;;
21848;SDS011;11089;49.852;19.700;2022-11-13T04:12:11;99.53;;;18.30;;
21848;SDS011;11089;49.852;19.700;2022-11-13T04:15:12;33.88;;;16.05;;
21848;SDS011;11089;49.852;19.700;2022-11-13T04:18:13;36.55;;;14.80;;
21848;SDS011;11089;49.852;19.700;2022-11-13T04:21:14;34.70;;;13.90;;
21848;SDS011;11089;49.852;19.700;2022-11-13T04:24:15;38.92;;;14.60;;
21848;SDS011;11089;49.852;19.700;2022-11-13T04:27:16;26.30;;;14.15;;
21848;SDS011;11089;49.852;19.700;2022-11-13T04:30:17;24.75;;;13.38;;
21848;SDS011;11089;49.852;19.700;2022-11-13T04:33:18;30.90;;;14.00;;
21848;SDS011;11089;49.852;19.700;2022-11-13T04:36:19;30.25;;;14.68;;
21848;SDS011;11089;49.852;19.700;2022-11-13T04:39:20;30.55;;;13.73;;
21848;SDS011;11089;49.852;19.700;2022-11-13T04:42:21;32.67;;;15.55;;
21848;SDS011;11089;49.852;19.700;2022-11-13T04:45:37;43.33;;;15.48;;
21848;SDS011;11089;49.852;19.700;2022-11-13T04:48:38;31.50;;;14.05;;
21848;SDS011;11089;49.852;19.700;2022-11-13T04:51:39;31.75;;;14.70;;
21848;SDS011;11089;49.852;19.700;2022-11-13T04:54:40;33.15;;;15.63;;
21848;SDS011;11089;49.852;19.700;2022-11-13T04:57:41;29.63;;;15.07;;
21848;SDS011;11089;49.852;19.700;2022-11-13T05:00:42;32.78;;;15.95;;
21848;SDS011;11089;49.852;19.700;2022-11-13T05:03:43;32.72;;;15.18;;
21848;SDS011;11089;49.852;19.700;2022-11-13T05:06:44;29.83;;;14.32;;
21848;SDS011;11089;49.852;19.700;2022-11-13T05:09:44;29.42;;;14.50;;
21848;SDS011;11089;49.852;19.700;2022-11-13T05:12:45;28.90;;;14.23;;
21848;SDS011;11089;49.852;19.700;2022-11-13T05:15:46;31.13;;;14.73;;
21848;SDS011;11089;49.852;19.700;2022-11-13T05:18:47;34.53;;;15.57;;
21848;SDS011;11089;49.852;19.700;2022-11-13T05:21:48;28.90;;;15.43;;
21848;SDS011;11089;49.852;19.700;2022-11-13T05:24:49;30.45;;;15.02;;
21848;SDS011;11089;49.852;19.700;2022-11-13T05:27:50;32.08;;;15.40;;
21848;SDS011;11089;49.852;19.700;2022-11-13T05:30:51;30.58;;;14.32;;
21848;SDS011;11089;49.852;19.700;2022-11-13T05:33:52;30.88;;;15.15;;
21848;SDS011;11089;49.852;19.700;2022-11-13T05:36:53;28.60;;;13.80;;
21848;SDS011;11089;49.852;19.700;2022-11-13T05:39:54;36.05;;;14.57;;
21848;SDS011;11089;49.852;19.700;2022-11-13T05:42:55;33.55;;;14.68;;
21848;SDS011;11089;49.852;19.700;2022-11-13T05:46:00;30.98;;;14.32;;
21848;SDS011;11089;49.852;19.700;2022-11-13T05:49:02;34.28;;;17.00;;
21848;SDS011;11089;49.852;19.700;2022-11-13T05:52:03;36.75;;;15.75;;
21848;SDS011;11089;49.852;19.700;2022-11-13T05:55:04;32.42;;;15.00;;
21848;SDS011;11089;49.852;19.700;2022-11-13T05:58:06;32.13;;;14.50;;
21848;SDS011;11089;49.852;19.700;2022-11-13T06:01:17;32.55;;;15.32;;
21848;SDS011;11089;49.852;19.700;2022-11-13T06:04:24;36.40;;;15.27;;
21848;SDS011;11089;49.852;19.700;2022-11-13T06:07:25;51.33;;;15.65;;
21848;SDS011;11089;49.852;19.700;2022-11-13T06:10:26;50.92;;;15.73;;
21848;SDS011;11089;49.852;19.700;2022-11-13T06:13:27;33.38;;;15.00;;
21848;SDS011;11089;49.852;19.700;2022-11-13T06:16:29;33.85;;;14.52;;
21848;SDS011;11089;49.852;19.700;2022-11-13T06:19:35;29.88;;;13.20;;
21848;SDS011;11089;49.852;19.700;2022-11-13T06:22:35;34.55;;;13.25;;
21848;SDS011;11089;49.852;19.700;2022-11-13T06:25:36;45.25;;;13.45;;
21848;SDS011;11089;49.852;19.700;2022-11-13T06:28:37;28.55;;;13.75;;
21848;SDS011;11089;49.852;19.700;2022-11-13T06:31:39;30.45;;;13.60;;
21848;SDS011;11089;49.852;19.700;2022-11-13T06:34:40;26.23;;;12.32;;
21848;SDS011;11089;49.852;19.700;2022-11-13T06:37:41;27.75;;;12.63;;
21848;SDS011;11089;49.852;19.700;2022-11-13T06:40:42;23.60;;;12.32;;
21848;SDS011;11089;49.852;19.700;2022-11-13T06:43:43;27.13;;;13.43;;
21848;SDS011;11089;49.852;19.700;2022-11-13T06:46:44;21.10;;;11.02;;
21848;SDS011;11089;49.852;19.700;2022-11-13T06:49:45;33.20;;;13.02;;
21848;SDS011;11089;49.852;19.700;2022-11-13T06:52:46;22.25;;;11.95;;
21848;SDS011;11089;49.852;19.700;2022-11-13T06:55:48;25.08;;;12.38;;
21848;SDS011;11089;49.852;19.700;2022-11-13T06:58:50;25.92;;;13.10;;
21848;SDS011;11089;49.852;19.700;2022-11-13T07:01:51;26.92;;;13.38;;
21848;SDS011;11089;49.852;19.700;2022-11-13T07:04:52;24.00;;;12.25;;
21848;SDS011;11089;49.852;19.700;2022-11-13T07:07:53;24.52;;;13.02;;
21848;SDS011;11089;49.852;19.700;2022-11-13T07:10:54;22.83;;;12.40;;
21848;SDS011;11089;49.852;19.700;2022-11-13T07:13:56;29.60;;;15.48;;
21848;SDS011;11089;49.852;19.700;2022-11-13T07:16:57;25.75;;;13.82;;
21848;SDS011;11089;49.852;19.700;2022-11-13T07:19:58;23.42;;;12.18;;
21848;SDS011;11089;49.852;19.700;2022-11-13T07:22:59;25.45;;;13.32;;
21848;SDS011;11089;49.852;19.700;2022-11-13T07:26:04;24.30;;;13.30;;
21848;SDS011;11089;49.852;19.700;2022-11-13T07:29:05;29.25;;;13.55;;
21848;SDS011;11089;49.852;19.700;2022-11-13T07:32:06;29.33;;;13.95;;
21848;SDS011;11089;49.852;19.700;2022-11-13T07:35:07;37.10;;;15.48;;
21848;SDS011;11089;49.852;19.700;2022-11-13T07:38:09;32.35;;;15.93;;
21848;SDS011;11089;49.852;19.700;2022-11-13T07:41:10;81.68;;;27.00;;
21848;SDS011;11089;49.852;19.700;2022-11-13T07:44:11;56.88;;;23.67;;
21848;SDS011;11089;49.852;19.700;2022-11-13T07:47:11;45.70;;;21.48;;
21848;SDS011;11089;49.852;19.700;2022-11-13T07:50:12;45.78;;;18.40;;
21848;SDS011;11089;49.852;19.700;2022-11-13T07:53:14;44.42;;;16.48;;
21848;SDS011;11089;49.852;19.700;2022-11-13T07:56:15;34.33;;;15.73;;
21848;SDS011;11089;49.852;19.700;2022-11-13T07:59:16;30.33;;;14.77;;
21848;SDS011;11089;49.852;19.700;2022-11-13T08:02:17;39.13;;;15.57;;
21848;SDS011;11089;49.852;19.700;2022-11-13T08:05:18;58.05;;;22.80;;
21848;SDS011;11089;49.852;19.700;2022-11-13T08:08:19;43.28;;;16.92;;
21848;SDS011;11089;49.852;19.700;2022-11-13T08:11:20;43.53;;;16.50;;
21848;SDS011;11089;49.852;19.700;2022-11-13T08:14:21;34.47;;;15.40;;
21848;SDS011;11089;49.852;19.700;2022-11-13T08:17:22;54.20;;;19.65;;
21848;SDS011;11089;49.852;19.700;2022-11-13T08:20:23;51.70;;;25.30;;
21848;SDS011;11089;49.852;19.700;2022-11-13T08:23:25;50.55;;;26.20;;
21848;SDS011;11089;49.852;19.700;2022-11-13T08:26:26;49.60;;;23.35;;
21848;SDS011;11089;49.852;19.700;2022-11-13T08:29:27;45.20;;;21.17;;
21848;SDS011;11089;49.852;19.700;2022-11-13T08:32:28;47.20;;;21.63;;
21848;SDS011;11089;49.852;19.700;2022-11-13T08:35:29;39.88;;;19.10;;
21848;SDS011;11089;49.852;19.700;2022-11-13T08:38:30;38.03;;;18.90;;
21848;SDS011;11089;49.852;19.700;2022-11-13T08:41:31;38.17;;;17.80;;
21848;SDS011;11089;49.852;19.700;2022-11-13T08:44:32;36.00;;;17.95;;
21848;SDS011;11089;49.852;19.700;2022-11-13T08:47:33;29.70;;;14.25;;
21848;SDS011;11089;49.852;19.700;2022-11-13T08:50:34;24.98;;;13.32;;
21848;SDS011;11089;49.852;19.700;2022-11-13T08:53:35;25.40;;;13.68;;
21848;SDS011;11089;49.852;19.700;2022-11-13T08:56:36;26.00;;;14.30;;
21848;SDS011;11089;49.852;19.700;2022-11-13T08:59:37;25.73;;;13.27;;
21848;SDS011;11089;49.852;19.700;2022-11-13T09:02:38;34.58;;;17.13;;
21848;SDS011;11089;49.852;19.700;2022-11-13T09:05:39;31.67;;;16.15;;
21848;SDS011;11089;49.852;19.700;2022-11-13T09:08:40;37.70;;;18.67;;
21848;SDS011;11089;49.852;19.700;2022-11-13T09:11:41;39.78;;;19.45;;
21848;SDS011;11089;49.852;19.700;2022-11-13T09:14:42;40.65;;;17.60;;
21848;SDS011;11089;49.852;19.700;2022-11-13T09:17:43;39.38;;;17.50;;
21848;SDS011;11089;49.852;19.700;2022-11-13T09:20:43;35.60;;;16.95;;
21848;SDS011;11089;49.852;19.700;2022-11-13T09:23:45;35.35;;;19.10;;
21848;SDS011;11089;49.852;19.700;2022-11-13T09:26:46;34.78;;;16.98;;
21848;SDS011;11089;49.852;19.700;2022-11-13T09:29:46;33.95;;;16.73;;
21848;SDS011;11089;49.852;19.700;2022-11-13T09:32:47;34.15;;;17.67;;
21848;SDS011;11089;49.852;19.700;2022-11-13T09:35:53;39.95;;;19.20;;
21848;SDS011;11089;49.852;19.700;2022-11-13T09:38:54;37.92;;;18.92;;
21848;SDS011;11089;49.852;19.700;2022-11-13T09:41:56;46.08;;;22.05;;
21848;SDS011;11089;49.852;19.700;2022-11-13T09:44:59;40.72;;;21.02;;
21848;SDS011;11089;49.852;19.700;2022-11-13T09:48:18;38.67;;;19.55;;
21848;SDS011;11089;49.852;19.700;2022-11-13T09:51:29;38.80;;;19.27;;
21848;SDS011;11089;49.852;19.700;2022-11-13T09:54:35;36.92;;;18.30;;
21848;SDS011;11089;49.852;19.700;2022-11-13T09:58:11;34.42;;;17.00;;
21848;SDS011;11089;49.852;19.700;2022-11-13T10:02:16;32.53;;;16.88;;
21848;SDS011;11089;49.852;19.700;2022-11-13T10:04:58;31.88;;;16.77;;
21848;SDS011;11089;49.852;19.700;2022-11-13T10:08:17;29.27;;;15.05;;
21848;SDS011;11089;49.852;19.700;2022-11-13T10:11:30;34.05;;;17.35;;
21848;SDS011;11089;49.852;19.700;2022-11-13T10:14:43;31.42;;;16.65;;
21848;SDS011;11089;49.852;19.700;2022-11-13T10:20:53;33.35;;;16.58;;
21848;SDS011;11089;49.852;19.700;2022-11-13T10:24:03;29.65;;;15.77;;
21848;SDS011;11089;49.852;19.700;2022-11-13T10:27:12;32.78;;;17.50;;
21848;SDS011;11089;49.852;19.700;2022-11-13T10:30:15;32.17;;;16.02;;
21848;SDS011;11089;49.852;19.700;2022-11-13T10:33:19;31.95;;;16.88;;
21848;SDS011;11089;49.852;19.700;2022-11-13T10:36:33;31.15;;;16.88;;
21848;SDS011;11089;49.852;19.700;2022-11-13T10:39:42;33.78;;;16.50;;
21848;SDS011;11089;49.852;19.700;2022-11-13T10:42:44;31.30;;;16.63;;
21848;SDS011;11089;49.852;19.700;2022-11-13T10:45:55;32.75;;;16.73;;
21848;SDS011;11089;49.852;19.700;2022-11-13T10:48:58;38.03;;;18.48;;
21848;SDS011;11089;49.852;19.700;2022-11-13T10:52:18;35.90;;;17.92;;
21848;SDS011;11089;49.852;19.700;2022-11-13T10:55:25;31.58;;;16.80;;
21848;SDS011;11089;49.852;19.700;2022-11-13T10:58:33;31.08;;;16.75;;
21848;SDS011;11089;49.852;19.700;2022-11-13T11:01:34;32.83;;;16.98;;
21848;SDS011;11089;49.852;19.700;2022-11-13T11:04:35;36.58;;;17.67;;
21848;SDS011;11089;49.852;19.700;2022-11-13T11:07:39;33.85;;;18.42;;
21848;SDS011;11089;49.852;19.700;2022-11-13T11:10:40;33.13;;;17.98;;
21848;SDS011;11089;49.852;19.700;2022-11-13T11:17:16;36.88;;;18.85;;
21848;SDS011;11089;49.852;19.700;2022-11-13T11:23:43;34.80;;;18.02;;
21848;SDS011;11089;49.852;19.700;2022-11-13T11:39:48;39.72;;;22.42;;
21848;SDS011;11089;49.852;19.700;2022-11-13T11:43:00;46.17;;;23.88;;
21848;SDS011;11089;49.852;19.700;2022-11-13T11:46:21;46.88;;;23.35;;
21848;SDS011;11089;49.852;19.700;2022-11-13T11:49:24;45.15;;;23.55;;
21848;SDS011;11089;49.852;19.700;2022-11-13T11:56:20;40.75;;;21.08;;
21848;SDS011;11089;49.852;19.700;2022-11-13T11:59:39;41.40;;;21.33;;
21848;SDS011;11089;49.852;19.700;2022-11-13T12:06:07;44.00;;;22.27;;
21848;SDS011;11089;49.852;19.700;2022-11-13T12:09:30;47.47;;;25.48;;
21848;SDS011;11089;49.852;19.700;2022-11-13T12:22:34;44.53;;;22.33;;
21848;SDS011;11089;49.852;19.700;2022-11-13T12:32:38;47.50;;;23.40;;
21848;SDS011;11089;49.852;19.700;2022-11-13T12:35:50;45.35;;;22.65;;
21848;SDS011;11089;49.852;19.700;2022-11-13T12:39:01;45.95;;;23.33;;
21848;SDS011;11089;49.852;19.700;2022-11-13T12:42:20;45.33;;;22.88;;
21848;SDS011;11089;49.852;19.700;2022-11-13T12:48:40;48.30;;;24.75;;
21848;SDS011;11089;49.852;19.700;2022-11-13T12:51:52;45.67;;;24.85;;
21848;SDS011;11089;49.852;19.700;2022-11-13T12:55:04;42.10;;;21.67;;
21848;SDS011;11089;49.852;19.700;2022-11-13T12:58:09;45.05;;;22.60;;
21848;SDS011;11089;49.852;19.700;2022-11-13T13:01:23;49.10;;;24.00;;
21848;SDS011;11089;49.852;19.700;2022-11-13T13:04:33;44.65;;;22.08;;
21848;SDS011;11089;49.852;19.700;2022-11-13T13:17:22;44.67;;;22.88;;
21848;SDS011;11089;49.852;19.700;2022-11-13T13:20:28;40.70;;;21.58;;
21848;SDS011;11089;49.852;19.700;2022-11-13T13:23:35;41.83;;;20.83;;
21848;SDS011;11089;49.852;19.700;2022-11-13T13:26:44;41.90;;;22.38;;
21848;SDS011;11089;49.852;19.700;2022-11-13T13:29:46;43.95;;;21.83;;
21848;SDS011;11089;49.852;19.700;2022-11-13T13:46:29;50.17;;;23.92;;
21848;SDS011;11089;49.852;19.700;2022-11-13T13:49:31;52.42;;;26.02;;
21848;SDS011;11089;49.852;19.700;2022-11-13T13:52:33;48.58;;;24.90;;
21848;SDS011;11089;49.852;19.700;2022-11-13T13:55:36;54.08;;;25.90;;
21848;SDS011;11089;49.852;19.700;2022-11-13T13:58:43;53.00;;;25.60;;
21848;SDS011;11089;49.852;19.700;2022-11-13T14:01:54;53.92;;;24.85;;
21848;SDS011;11089;49.852;19.700;2022-11-13T14:04:57;57.08;;;27.25;;
21848;SDS011;11089;49.852;19.700;2022-11-13T14:07:58;56.30;;;26.77;;
21848;SDS011;11089;49.852;19.700;2022-11-13T14:11:14;57.08;;;26.50;;
21848;SDS011;11089;49.852;19.700;2022-11-13T14:14:20;50.40;;;23.95;;
21848;SDS011;11089;49.852;19.700;2022-11-13T14:17:23;49.92;;;23.02;;
21848;SDS011;11089;49.852;19.700;2022-11-13T14:20:24;54.70;;;25.33;;
21848;SDS011;11089;49.852;19.700;2022-11-13T14:26:56;54.20;;;25.45;;
21848;SDS011;11089;49.852;19.700;2022-11-13T14:29:59;63.33;;;27.05;;
21848;SDS011;11089;49.852;19.700;2022-11-13T14:33:01;57.95;;;25.80;;
21848;SDS011;11089;49.852;19.700;2022-11-13T14:36:03;55.78;;;25.80;;
21848;SDS011;11089;49.852;19.700;2022-11-13T14:39:05;60.10;;;26.40;;
21848;SDS011;11089;49.852;19.700;2022-11-13T14:42:19;61.10;;;26.52;;
21848;SDS011;11089;49.852;19.700;2022-11-13T14:48:26;62.08;;;26.70;;
21848;SDS011;11089;49.852;19.700;2022-11-13T14:51:30;52.75;;;25.60;;
21848;SDS011;11089;49.852;19.700;2022-11-13T14:54:34;59.58;;;25.83;;
21848;SDS011;11089;49.852;19.700;2022-11-13T14:57:45;58.22;;;24.83;;
21848;SDS011;11089;49.852;19.700;2022-11-13T15:00:47;54.53;;;25.73;;
21848;SDS011;11089;49.852;19.700;2022-11-13T15:03:48;54.80;;;24.50;;
21848;SDS011;11089;49.852;19.700;2022-11-13T15:06:50;62.60;;;26.52;;
21848;SDS011;11089;49.852;19.700;2022-11-13T15:09:55;60.78;;;24.88;;
21848;SDS011;11089;49.852;19.700;2022-11-13T15:12:57;56.70;;;24.70;;
21848;SDS011;11089;49.852;19.700;2022-11-13T15:15:58;67.63;;;28.33;;
21848;SDS011;11089;49.852;19.700;2022-11-13T15:19:00;67.30;;;29.25;;
21848;SDS011;11089;49.852;19.700;2022-11-13T15:22:07;62.17;;;27.75;;
21848;SDS011;11089;49.852;19.700;2022-11-13T15:25:14;63.08;;;27.33;;
21848;SDS011;11089;49.852;19.700;2022-11-13T15:28:16;56.67;;;26.17;;
21848;SDS011;11089;49.852;19.700;2022-11-13T15:34:37;60.15;;;26.48;;
21848;SDS011;11089;49.852;19.700;2022-11-13T15:37:38;63.55;;;27.33;;
21848;SDS011;11089;49.852;19.700;2022-11-13T15:40:39;63.13;;;26.48;;
21848;SDS011;11089;49.852;19.700;2022-11-13T15:43:42;64.30;;;27.63;;
21848;SDS011;11089;49.852;19.700;2022-11-13T15:46:45;61.60;;;25.88;;
21848;SDS011;11089;49.852;19.700;2022-11-13T15:49:46;62.58;;;26.73;;
21848;SDS011;11089;49.852;19.700;2022-11-13T15:52:48;67.82;;;26.52;;
21848;SDS011;11089;49.852;19.700;2022-11-13T15:55:51;64.88;;;27.45;;
21848;SDS011;11089;49.852;19.700;2022-11-13T15:58:52;66.07;;;26.67;;
21848;SDS011;11089;49.852;19.700;2022-11-13T16:01:53;55.67;;;24.83;;
21848;SDS011;11089;49.852;19.700;2022-11-13T16:04:56;50.85;;;23.83;;
21848;SDS011;11089;49.852;19.700;2022-11-13T16:07:57;47.38;;;22.27;;
21848;SDS011;11089;49.852;19.700;2022-11-13T16:10:58;60.72;;;23.13;;
21848;SDS011;11089;49.852;19.700;2022-11-13T16:13:59;51.97;;;22.40;;
21848;SDS011;11089;49.852;19.700;2022-11-13T16:17:00;50.90;;;23.40;;
21848;SDS011;11089;49.852;19.700;2022-11-13T16:20:02;53.33;;;23.33;;
21848;SDS011;11089;49.852;19.700;2022-11-13T16:23:07;49.25;;;22.33;;
21848;SDS011;11089;49.852;19.700;2022-11-13T16:26:23;48.45;;;21.35;;
21848;SDS011;11089;49.852;19.700;2022-11-13T16:29:25;52.67;;;22.88;;
21848;SDS011;11089;49.852;19.700;2022-11-13T16:32:26;49.80;;;22.58;;
21848;SDS011;11089;49.852;19.700;2022-11-13T16:35:27;59.83;;;23.52;;
21848;SDS011;11089;49.852;19.700;2022-11-13T16:38:28;55.80;;;23.35;;
21848;SDS011;11089;49.852;19.700;2022-11-13T16:41:29;53.53;;;23.27;;
21848;SDS011;11089;49.852;19.700;2022-11-13T16:44:30;52.05;;;21.23;;
21848;SDS011;11089;49.852;19.700;2022-11-13T16:47:31;54.75;;;23.33;;
21848;SDS011;11089;49.852;19.700;2022-11-13T16:50:33;54.50;;;22.98;;
21848;SDS011;11089;49.852;19.700;2022-11-13T16:53:36;60.50;;;25.65;;
21848;SDS011;11089;49.852;19.700;2022-11-13T16:56:37;65.55;;;24.95;;
21848;SDS011;11089;49.852;19.700;2022-11-13T16:59:38;62.33;;;24.13;;
21848;SDS011;11089;49.852;19.700;2022-11-13T17:02:39;54.47;;;22.85;;
21848;SDS011;11089;49.852;19.700;2022-11-13T17:05:40;54.38;;;21.38;;
21848;SDS011;11089;49.852;19.700;2022-11-13T17:08:41;47.33;;;20.90;;
21848;SDS011;11089;49.852;19.700;2022-11-13T17:11:42;48.78;;;20.45;;
21848;SDS011;11089;49.852;19.700;2022-11-13T17:14:44;52.17;;;21.10;;
21848;SDS011;11089;49.852;19.700;2022-11-13T17:17:46;55.92;;;21.90;;
21848;SDS011;11089;49.852;19.700;2022-11-13T17:20:50;55.10;;;21.73;;
21848;SDS011;11089;49.852;19.700;2022-11-13T17:23:58;59.08;;;21.70;;
21848;SDS011;11089;49.852;19.700;2022-11-13T17:27:00;54.60;;;22.52;;
21848;SDS011;11089;49.852;19.700;2022-11-13T17:30:01;54.42;;;22.30;;
21848;SDS011;11089;49.852;19.700;2022-11-13T17:33:03;51.70;;;21.15;;
21848;SDS011;11089;49.852;19.700;2022-11-13T17:36:04;59.10;;;22.70;;
21848;SDS011;11089;49.852;19.700;2022-11-13T17:39:05;56.63;;;23.92;;
21848;SDS011;11089;49.852;19.700;2022-11-13T17:42:06;62.95;;;24.15;;
21848;SDS011;11089;49.852;19.700;2022-11-13T17:45:08;52.78;;;22.05;;
21848;SDS011;11089;49.852;19.700;2022-11-13T17:48:09;52.53;;;23.35;;
21848;SDS011;11089;49.852;19.700;2022-11-13T17:51:11;60.40;;;23.67;;
21848;SDS011;11089;49.852;19.700;2022-11-13T17:54:13;59.80;;;22.50;;
21848;SDS011;11089;49.852;19.700;2022-11-13T17:57:14;59.97;;;22.83;;
21848;SDS011;11089;49.852;19.700;2022-11-13T18:00:15;67.40;;;25.45;;
21848;SDS011;11089;49.852;19.700;2022-11-13T18:03:17;70.68;;;24.40;;
21848;SDS011;11089;49.852;19.700;2022-11-13T18:06:18;56.75;;;22.00;;
21848;SDS011;11089;49.852;19.700;2022-11-13T18:09:19;47.97;;;21.98;;
21848;SDS011;11089;49.852;19.700;2022-11-13T18:12:20;56.47;;;23.23;;
21848;SDS011;11089;49.852;19.700;2022-11-13T18:15:21;66.25;;;25.25;;
21848;SDS011;11089;49.852;19.700;2022-11-13T18:18:23;63.08;;;24.52;;
21848;SDS011;11089;49.852;19.700;2022-11-13T18:21:25;66.95;;;25.15;;
21848;SDS011;11089;49.852;19.700;2022-11-13T18:24:29;59.35;;;23.15;;
21848;SDS011;11089;49.852;19.700;2022-11-13T18:27:30;50.85;;;23.73;;
21848;SDS011;11089;49.852;19.700;2022-11-13T18:30:31;68.93;;;24.67;;
21848;SDS011;11089;49.852;19.700;2022-11-13T18:33:32;54.35;;;21.63;;
21848;SDS011;11089;49.852;19.700;2022-11-13T18:36:33;67.10;;;24.17;;
21848;SDS011;11089;49.852;19.700;2022-11-13T18:39:35;54.70;;;22.45;;
21848;SDS011;11089;49.852;19.700;2022-11-13T18:42:36;56.63;;;23.58;;
21848;SDS011;11089;49.852;19.700;2022-11-13T18:45:36;59.75;;;21.77;;
21848;SDS011;11089;49.852;19.700;2022-11-13T18:48:38;55.75;;;21.83;;
21848;SDS011;11089;49.852;19.700;2022-11-13T18:51:39;52.55;;;22.67;;
21848;SDS011;11089;49.852;19.700;2022-11-13T18:54:40;48.72;;;20.33;;
21848;SDS011;11089;49.852;19.700;2022-11-13T18:57:42;66.05;;;22.48;;
21848;SDS011;11089;49.852;19.700;2022-11-13T19:00:43;57.53;;;22.90;;